Here is the Quick Look data you requested

The Data originates at the National Weather Service, and is made available here by the UAlbany Department of Atmospheric and Environmental Sciences

Surface Observations

KBWI 240454Z 00000KT 10SM FEW070 FEW160 BKN250 21/19 A2989 RMK AO2 SLP119
 T02060189 402890194=
KBWI 240554Z 25003KT 10SM FEW065 FEW160 BKN250 19/18 A2987 RMK AO2 SLP112 60000
 T01940183 10239 20194 58010=
KBWI 240654Z 00000KT 10SM FEW160 SCT230 BKN250 19/18 A2986 RMK AO2 SLP109
 T01940183=
KBWI 240754Z 00000KT 10SM FEW060 SCT230 BKN250 20/19 A2985 RMK AO2 SLP108
 T02000189=
KBWI 240854Z 00000KT 10SM FEW220 BKN250 19/18 A2985 RMK AO2 SLP107 T01890183
 56005=
KBWI 240954Z 33004KT 10SM FEW070 FEW110 SCT220 BKN250 18/18 A2985 RMK AO2
 SLP108 ACC DSNT SE-S AND NW-N T01830178=
KBWI 241054Z 17004KT 10SM FEW050 FEW080 SCT110 BKN210 BKN250 21/18 A2988 RMK
 AO2 SLP116 CB DSNT SE MOV E ACC ALQDS T02060183=
KBWI 241154Z 00000KT 10SM FEW060 SCT095 BKN140 BKN250 22/19 A2988 RMK AO2
 SLP118 CB DSNT SE MOV E ACC SE-S T02170194 10217 20183 53012=
KBWI 241254Z VRB05KT 10SM FEW055 SCT100 SCT200 BKN250 25/17 A2988 RMK AO2
 SLP118 CB DSNT E-SE MOV E T02500167=
KBWI 241354Z VRB06KT 10SM FEW065 FEW100 SCT160 SCT210 BKN250 26/14 A2988 RMK
 AO2 SLP118 T02610144=
KBWI 241454Z 07009KT 10SM SCT060 SCT100 SCT170 BKN250 27/14 A2989 RMK AO2
 SLP119 T02670139 53001=
KBWI 241554Z 09010KT 10SM SCT060 SCT130 BKN230 27/13 A2988 RMK AO2 SLP118 CB
 DSNT S MOV SE T02670133=
KBWI 241654Z 10007KT 10SM FEW060 SCT120 BKN210 BKN250 27/13 A2987 RMK AO2
 SLP114 CB DSNT S MOV S T02670128=
KBWI 241754Z 10008KT 10SM FEW060 SCT140 SCT250 27/12 A2985 RMK AO2 SLP106 CB
 DSNT S MOV S TCU DSNT E-S T02720117 10278 20217 58014=
KBWI 241854Z 10007KT 10SM FEW060 FEW140 SCT250 28/11 A2985 RMK AO2 SLP105 TCU
 DSNT E AND SW T02780111=
KBWI 241954Z VRB03KT 10SM FEW070 FEW140 FEW250 29/13 A2984 RMK AO2 SLP102 TCU
 DSNT S T02940128=
KBWI 242054Z 00000KT 10SM FEW070 FEW140 SCT250 28/12 A2982 RMK AO2 SLP096 CB
 DSNT S MOV SE TCU DSNT SE T02830122 58009=
KBWI 242154Z 00000KT 10SM FEW070 FEW140 BKN250 29/13 A2982 RMK AO2 SLP095 TCU
 DSNT E ACC DSNT SE-S T02940128=
KBWI 242254Z 00000KT 10SM FEW060 SCT250 29/13 A2981 RMK AO2 SLP094 TCU DSNT E
 AND DSNT SW T02890128=
KBWI 242354Z 15005KT 10SM FEW060 SCT250 27/14 A2981 RMK AO2 SLP092 T02670144
 10294 20267 58004=
KBWI 250054Z 17004KT 10SM FEW250 25/16 A2982 RMK AO2 SLP097 T02500161=
KBWI 250154Z 20004KT 10SM CLR 24/17 A2985 RMK AO2 SLP106 T02440172=
KBWI 250254Z 22004KT 10SM FEW250 23/17 A2986 RMK AO2 SLP110 T02280167 51017=
KBWI 250354Z 23003KT 10SM FEW250 22/17 A2986 RMK AO2 SLP109 T02170167=
KBWI 250454Z 00000KT 10SM FEW250 21/17 A2986 RMK AO2 SLP110 T02110167 402940183=
KBWI 250554Z 28003KT 10SM FEW250 21/17 A2985 RMK AO2 SLP105 T02060172 10261
 20200 58005=
KBWI 250654Z 26004KT 10SM SCT250 20/18 A2983 RMK AO2 SLP101 T02000178=
KBWI 250754Z 23003KT 10SM SCT250 19/17 A2983 RMK AO2 SLP099 T01940172=
KBWI 250854Z 27003KT 10SM CLR 19/17 A2983 RMK AO2 SLP100 T01890172 55005=
KBWI 250854Z COR 27003KT 10SM BKN250 19/17 A2983 RMK AO2 SLP100 T01890172 55005=
KBWI 250954Z 00000KT 10SM BKN250 19/18 A2985 RMK AO2 SLP105 T01890178=
KBWI 251054Z 00000KT 10SM BKN250 19/18 A2985 RMK AO2 SLP108 T01890178=